createdAt,value
2023-05-05T00:00:13.758Z,70.7727
2023-05-05T00:01:14.809Z,71.4553
2023-05-05T00:02:15.424Z,71.2816
2023-05-05T00:03:16.730Z,71.7832
2023-05-05T00:04:18.039Z,71.5527
2023-05-05T00:05:18.293Z,71.5692
2023-05-05T00:06:18.840Z,71.1397
2023-05-05T00:07:19.366Z,70.9749
2023-05-05T00:08:19.678Z,71.2219
2023-05-05T00:09:20.233Z,71.1180
2023-05-05T00:10:21.108Z,71.0461
2023-05-05T00:11:22.177Z,71.1966
2023-05-05T00:12:22.752Z,71.9094
2023-05-05T00:13:23.906Z,72.4404
2023-05-05T00:14:24.702Z,72.4048
2023-05-05T00:15:25.265Z,72.5937
2023-05-05T00:16:26.065Z,72.8266
2023-05-05T00:17:26.985Z,73.0330
2023-05-05T00:18:28.135Z,73.1083
2023-05-05T00:19:28.868Z,73.2760
2023-05-05T00:20:30.070Z,73.5980
2023-05-05T00:21:30.842Z,73.8637
2023-05-05T00:22:31.664Z,73.7308
2023-05-05T00:23:32.228Z,73.8890
2023-05-05T00:24:32.881Z,74.2098
2023-05-05T00:25:33.534Z,74.4395
2023-05-05T00:26:34.265Z,74.6290
2023-05-05T00:27:35.079Z,75.0408
2023-05-05T00:28:35.635Z,75.2657
2023-05-05T00:29:36.427Z,75.1896
2023-05-05T00:30:37.330Z,75.1423
2023-05-05T00:31:38.190Z,74.9562
2023-05-05T00:32:39.155Z,74.6544
2023-05-05T00:33:39.786Z,74.7721
2023-05-05T00:34:40.648Z,74.8273
2023-05-05T00:35:41.558Z,74.9016
2023-05-05T00:36:43.289Z,74.8701
2023-05-05T00:37:43.320Z,75.0373
2023-05-05T00:38:44.078Z,74.8809
2023-05-05T00:39:45.009Z,74.8421
2023-05-05T00:40:45.929Z,74.6541
2023-05-05T00:41:46.637Z,74.3570
2023-05-05T00:42:47.538Z,74.4374
2023-05-05T00:43:48.382Z,74.1976
2023-05-05T00:44:48.970Z,74.5067
2023-05-05T00:45:49.610Z,74.5497
2023-05-05T00:46:50.643Z,74.6429
2023-05-05T00:47:51.825Z,74.5712
2023-05-05T00:48:53.918Z,74.5590
2023-05-05T00:49:53.577Z,75.3626
2023-05-05T00:50:54.483Z,75.0224
2023-05-05T00:51:55.331Z,75.2611
2023-05-05T00:52:56.016Z,75.3935
2023-05-05T00:53:56.963Z,75.5260
2023-05-05T00:54:57.617Z,75.6175
2023-05-05T00:55:58.344Z,76.1624
2023-05-05T00:56:59.269Z,76.2981
2023-05-05T00:57:59.882Z,76.5285
2023-05-05T00:59:01.470Z,76.3843
2023-05-05T01:00:01.207Z,76.4624
2023-05-05T01:01:01.929Z,76.6557
2023-05-05T01:02:02.796Z,76.9128
2023-05-05T01:04:22.425Z,77.3799
2023-05-05T01:05:23.413Z,77.5375
2023-05-05T01:11:30.482Z,76.0523
2023-05-05T01:12:31.813Z,75.4665
2023-05-05T01:18:37.687Z,73.9410
2023-05-05T01:19:38.273Z,74.0778
2023-05-05T01:20:39.394Z,74.0034
2023-05-05T01:21:39.720Z,74.2688
2023-05-05T01:22:40.871Z,74.4345
2023-05-05T01:23:41.694Z,74.5937
2023-05-05T01:24:43.325Z,74.9284
2023-05-05T01:25:43.449Z,75.0663
2023-05-05T01:26:44.260Z,75.1888
2023-05-05T01:27:45.045Z,75.4723
2023-05-05T01:30:47.184Z,76.5436
2023-05-05T01:31:48.303Z,76.9177
2023-05-05T01:36:51.868Z,78.4796
2023-05-05T01:37:51.911Z,78.2561
2023-05-05T01:38:51.981Z,78.5484
2023-05-05T01:39:52.430Z,78.4605
2023-05-05T01:40:53.636Z,78.7966
2023-05-05T01:41:55.793Z,78.6771
2023-05-05T01:42:58.013Z,78.8782
2023-05-05T01:44:00.275Z,79.0372
2023-05-05T01:45:02.319Z,79.0474
2023-05-05T01:46:03.449Z,79.1221
2023-05-05T01:47:04.491Z,79.2134
2023-05-05T01:54:15.317Z,78.7459
2023-05-05T02:00:19.223Z,77.8801
2023-05-05T02:01:19.766Z,77.7746
2023-05-05T02:03:20.976Z,77.7802
2023-05-05T02:04:22.030Z,77.7937
2023-05-05T02:05:22.887Z,77.1668
2023-05-05T02:06:22.973Z,77.1847
2023-05-05T02:07:24.647Z,77.0750
2023-05-05T02:08:24.344Z,76.9262
2023-05-05T02:09:25.332Z,76.4448
2023-05-05T02:10:26.071Z,76.0986
2023-05-05T02:11:26.115Z,75.6028
2023-05-05T02:12:29.661Z,74.7789
2023-05-05T02:13:26.841Z,73.5768
2023-05-05T02:14:27.137Z,73.3632
2023-05-05T02:15:27.952Z,73.1750
2023-05-05T02:16:29.119Z,72.9171
2023-05-05T02:17:30.086Z,73.1686
2023-05-05T02:18:30.849Z,73.2105
2023-05-05T02:19:31.681Z,73.4576
2023-05-05T02:20:31.770Z,73.6305
2023-05-05T02:21:32.693Z,73.2783
2023-05-05T02:22:33.552Z,73.0727
2023-05-05T02:23:34.311Z,72.8468
2023-05-05T02:24:35.104Z,72.2765
2023-05-05T02:25:36.399Z,71.8917
2023-05-05T02:26:37.280Z,71.8202
2023-05-05T02:27:38.256Z,71.7127
2023-05-05T02:28:38.938Z,71.6920
2023-05-05T02:29:40.241Z,71.8635
2023-05-05T02:30:40.637Z,71.8454
2023-05-05T02:31:41.670Z,71.9808
2023-05-05T02:32:42.927Z,72.0122
2023-05-05T02:33:43.828Z,72.5984
2023-05-05T02:34:44.540Z,72.5839
2023-05-05T02:35:45.493Z,72.6279
2023-05-05T02:36:46.260Z,72.6367
2023-05-05T02:37:47.122Z,72.8275
2023-05-05T02:38:48.120Z,73.0352
2023-05-05T02:39:48.751Z,73.1960
2023-05-05T02:42:50.067Z,74.0573
2023-05-05T02:44:50.394Z,75.4027
2023-05-05T02:45:51.380Z,75.8342
2023-05-05T02:46:52.534Z,76.2706
2023-05-05T02:47:53.717Z,76.4501
2023-05-05T02:48:54.204Z,76.7967
2023-05-05T02:49:55.409Z,77.3442
2023-05-05T02:50:55.371Z,77.7119
2023-05-05T02:51:56.000Z,77.9888
2023-05-05T02:52:56.690Z,78.2017
2023-05-05T02:53:57.554Z,78.3414
2023-05-05T02:54:57.921Z,78.6900
2023-05-05T02:55:58.365Z,78.8384
2023-05-05T02:56:59.541Z,78.9167
2023-05-05T02:58:00.426Z,78.7918
2023-05-05T02:59:01.268Z,79.0342
2023-05-05T03:00:01.321Z,78.9285
2023-05-05T03:01:01.985Z,79.0291
2023-05-05T03:02:02.217Z,79.1159
2023-05-05T03:03:03.594Z,79.1156
2023-05-05T03:04:03.775Z,79.2657
2023-05-05T03:05:04.643Z,79.0265
2023-05-05T03:06:05.548Z,79.1401
2023-05-05T03:07:06.455Z,79.2885
2023-05-05T03:08:07.354Z,79.3250
2023-05-05T03:09:08.227Z,79.6118
2023-05-05T03:10:09.444Z,79.5249
2023-05-05T03:11:09.268Z,79.3083
2023-05-05T03:12:10.065Z,79.2232
2023-05-05T03:13:11.368Z,79.1681
2023-05-05T03:14:12.154Z,79.4727
2023-05-05T03:15:13.087Z,79.8723
2023-05-05T03:16:14.132Z,79.7228
2023-05-05T03:17:15.057Z,79.8104
2023-05-05T03:18:16.398Z,79.8889
2023-05-05T03:19:17.092Z,79.7250
2023-05-05T03:20:17.404Z,79.6604
2023-05-05T03:21:18.445Z,79.7435
2023-05-05T03:22:19.158Z,79.4138
2023-05-05T03:23:20.355Z,78.6837
2023-05-05T03:24:20.224Z,78.1594
2023-05-05T03:25:20.991Z,77.8056
2023-05-05T03:26:21.659Z,77.2550
2023-05-05T03:27:22.544Z,76.9802
2023-05-05T03:28:23.732Z,76.7338
2023-05-05T03:29:23.950Z,76.7527
2023-05-05T03:30:24.001Z,76.8837
2023-05-05T03:31:24.489Z,77.0901
2023-05-05T03:34:17.766Z,76.8976
2023-05-05T03:35:18.643Z,76.6686
2023-05-05T03:36:19.471Z,76.6121
2023-05-05T03:37:20.350Z,76.4914
2023-05-05T03:38:21.217Z,76.5392
2023-05-05T03:39:21.904Z,76.3502
2023-05-05T03:40:29.618Z,76.4643
2023-05-05T03:41:23.516Z,76.2841
2023-05-05T03:42:24.155Z,76.3862
2023-05-05T03:43:24.974Z,76.4874
2023-05-05T03:44:25.709Z,76.3986
2023-05-05T03:45:26.659Z,76.1836
2023-05-05T03:46:27.674Z,76.1564
2023-05-05T03:47:29.623Z,76.2956
2023-05-05T03:49:30.320Z,76.1330
2023-05-05T03:50:30.466Z,76.1264
2023-05-05T03:51:31.023Z,76.1287
2023-05-05T03:52:31.553Z,75.9563
2023-05-05T03:53:32.377Z,75.6309
2023-05-05T03:54:33.671Z,75.7316
2023-05-05T03:55:34.699Z,75.7733
2023-05-05T03:56:35.978Z,75.6717
2023-05-05T03:57:36.757Z,75.4856
2023-05-05T03:58:37.256Z,75.3189
2023-05-05T03:59:38.267Z,75.3560
2023-05-05T04:00:39.603Z,75.3958
2023-05-05T04:01:40.527Z,75.6490
2023-05-05T04:02:41.346Z,75.7342
2023-05-05T04:03:43.329Z,75.8872
2023-05-05T04:04:44.702Z,75.9193
2023-05-05T04:05:44.846Z,75.8998
2023-05-05T04:06:46.813Z,75.9496
2023-05-05T04:07:47.890Z,76.1715
2023-05-05T04:08:48.718Z,76.4189
2023-05-05T04:09:49.600Z,76.4885
2023-05-05T04:10:49.645Z,76.5183
2023-05-05T04:11:49.859Z,76.3011
2023-05-05T04:12:51.031Z,76.1808
2023-05-05T04:13:52.053Z,76.1320
2023-05-05T04:14:52.689Z,76.4829
2023-05-05T04:16:53.321Z,76.7028
2023-05-05T04:17:53.565Z,76.7989
2023-05-05T04:18:54.538Z,76.8414
2023-05-05T04:19:55.374Z,77.5824
2023-05-05T04:20:55.408Z,78.2696
2023-05-05T04:21:55.901Z,78.4229
2023-05-05T04:22:58.248Z,78.4910
2023-05-05T04:23:59.144Z,78.6595
2023-05-05T04:25:00.301Z,79.1698
2023-05-05T04:26:01.135Z,79.3513
2023-05-05T04:27:02.055Z,79.5658
2023-05-05T04:29:02.815Z,79.6969
2023-05-05T04:30:03.854Z,79.7380
2023-05-05T04:32:04.459Z,79.7462
2023-05-05T04:33:04.612Z,80.1980
2023-05-05T04:34:05.408Z,80.0201
2023-05-05T04:35:06.431Z,79.4222
2023-05-05T04:36:07.472Z,78.9751
2023-05-05T04:37:08.304Z,79.6197
2023-05-05T04:38:09.365Z,79.4698
2023-05-05T04:39:10.522Z,79.5501
2023-05-05T04:40:11.352Z,79.2259
2023-05-05T04:41:12.338Z,78.1838
2023-05-05T04:42:12.533Z,78.1085
2023-05-05T04:43:13.500Z,78.1908
2023-05-05T04:44:14.533Z,78.1333
2023-05-05T04:45:15.295Z,77.8428
2023-05-05T04:46:16.326Z,76.9628
2023-05-05T04:47:16.302Z,76.7568
2023-05-05T04:48:16.343Z,76.8356
2023-05-05T04:49:17.514Z,76.8042
2023-05-05T04:50:17.501Z,77.2554
2023-05-05T04:51:18.456Z,77.5085
2023-05-05T04:52:19.329Z,77.4620
2023-05-05T04:53:20.187Z,77.5383
2023-05-05T04:54:21.201Z,77.7562
2023-05-05T04:55:22.003Z,77.8546
2023-05-05T04:56:22.979Z,77.8648
2023-05-05T04:57:24.016Z,78.1770
2023-05-05T04:58:24.893Z,78.2042
2023-05-05T04:59:25.887Z,78.6815
2023-05-05T05:00:26.668Z,79.1846
2023-05-05T05:01:27.860Z,79.2842
2023-05-05T05:02:28.286Z,79.3663
2023-05-05T05:03:28.489Z,79.1965
2023-05-05T05:04:28.811Z,78.3339
2023-05-05T05:05:29.789Z,78.2196
2023-05-05T05:06:30.777Z,78.2736
2023-05-05T05:07:30.818Z,78.1724
2023-05-05T05:08:31.680Z,78.1310
2023-05-05T05:09:32.633Z,77.8053
2023-05-05T05:10:33.600Z,78.3636
2023-05-05T05:11:34.967Z,78.5480
2023-05-05T05:12:35.115Z,78.5316
2023-05-05T05:13:35.407Z,78.6485
2023-05-05T05:14:36.423Z,78.7657
2023-05-05T05:15:36.812Z,78.9361
2023-05-05T05:16:37.094Z,79.0914
2023-05-05T05:17:38.197Z,79.4474
2023-05-05T05:18:39.662Z,79.8372
2023-05-05T05:19:40.079Z,80.3858
2023-05-05T05:20:40.756Z,80.9283
2023-05-05T05:21:40.891Z,81.6372
2023-05-05T05:22:41.519Z,82.1984
2023-05-05T05:23:42.080Z,82.2968
2023-05-05T05:24:43.231Z,82.3271
2023-05-05T05:25:43.315Z,82.8308
2023-05-05T05:26:44.607Z,83.9190
2023-05-05T05:27:50.172Z,84.1661
2023-05-05T05:28:45.870Z,84.4471
2023-05-05T05:29:46.748Z,84.4614
2023-05-05T05:30:47.486Z,84.2844
2023-05-05T05:31:47.478Z,84.2720
2023-05-05T05:32:49.102Z,84.1933
2023-05-05T05:33:49.085Z,84.2350
2023-05-05T05:34:49.925Z,84.1648
2023-05-05T05:35:50.065Z,84.2025
2023-05-05T05:36:51.069Z,84.2320
2023-05-05T05:37:51.107Z,84.2745
2023-05-05T05:38:52.396Z,84.1458
2023-05-05T05:39:53.443Z,84.2369
2023-05-05T05:40:53.976Z,84.2587
2023-05-05T05:41:54.886Z,84.3004
2023-05-05T05:42:56.265Z,84.3294
2023-05-05T05:43:57.318Z,84.1916
2023-05-05T05:44:58.147Z,84.0001
2023-05-05T05:45:58.317Z,83.9868
2023-05-05T05:46:58.909Z,83.9294
2023-05-05T05:48:00.045Z,83.7471
2023-05-05T05:49:00.019Z,83.6428
2023-05-05T05:50:01.229Z,83.4556
2023-05-05T05:51:02.448Z,83.1639
2023-05-05T05:52:02.290Z,83.2993
2023-05-05T05:53:02.952Z,83.1790
2023-05-05T05:54:04.159Z,81.0907
2023-05-05T05:55:05.090Z,80.5200
2023-05-05T05:56:06.301Z,80.5222
2023-05-05T05:57:07.597Z,80.8229
2023-05-05T05:58:08.484Z,80.3521
2023-05-05T05:59:09.537Z,80.5341
2023-05-05T06:00:11.662Z,80.2470
2023-05-05T06:01:12.505Z,79.2352
2023-05-05T06:02:13.885Z,78.4416
2023-05-05T06:03:14.876Z,77.1151
2023-05-05T06:04:15.955Z,76.2313
2023-05-05T06:05:15.887Z,76.1002
2023-05-05T06:06:16.762Z,76.1267
2023-05-05T06:07:17.740Z,76.3868
2023-05-05T06:08:19.070Z,77.0073
2023-05-05T06:09:19.936Z,76.8463
2023-05-05T06:10:28.047Z,77.4630
2023-05-05T06:11:24.873Z,78.3953
2023-05-05T06:12:25.703Z,78.9302
2023-05-05T06:13:25.867Z,79.0641
2023-05-05T06:14:26.516Z,79.4035
2023-05-05T06:15:27.650Z,79.9387
2023-05-05T06:16:29.020Z,78.9014
2023-05-05T06:17:30.046Z,77.5757
2023-05-05T06:18:30.854Z,77.0508
2023-05-05T06:19:31.693Z,75.6270
2023-05-05T06:20:32.681Z,74.2844
2023-05-05T06:21:33.701Z,74.9857
2023-05-05T06:22:34.645Z,75.5027
2023-05-05T06:23:35.629Z,74.8508
2023-05-05T06:24:36.636Z,75.2421
2023-05-05T06:25:37.544Z,74.2259
2023-05-05T06:26:38.547Z,73.2114
2023-05-05T06:27:39.493Z,73.2931
2023-05-05T06:28:40.669Z,73.4278
2023-05-05T06:29:41.798Z,73.4052
2023-05-05T06:30:43.049Z,73.4108
2023-05-05T06:31:44.327Z,72.9870
2023-05-05T06:32:45.480Z,71.9059
2023-05-05T06:33:46.525Z,72.2581
2023-05-05T06:34:46.632Z,72.5599
2023-05-05T06:35:47.824Z,72.9092
2023-05-05T06:36:48.214Z,73.3217
2023-05-05T06:37:50.259Z,72.5469
2023-05-05T06:40:50.534Z,72.7186
2023-05-05T06:41:51.882Z,71.5178
2023-05-05T06:42:53.050Z,70.1365
2023-05-05T06:43:54.549Z,71.0596
2023-05-05T06:44:55.003Z,71.6209
2023-05-05T06:45:56.191Z,72.5597
2023-05-05T06:46:56.219Z,72.0476
2023-05-05T06:47:57.643Z,71.1770
2023-05-05T06:48:57.597Z,70.5194
2023-05-05T06:49:58.717Z,70.1283
2023-05-05T06:50:59.417Z,69.7880
2023-05-05T06:52:00.097Z,68.7794
2023-05-05T06:53:01.109Z,68.4703
2023-05-05T06:54:02.331Z,69.1019
2023-05-05T06:55:02.984Z,69.5091
2023-05-05T06:56:04.124Z,68.7142
2023-05-05T06:57:04.269Z,69.1776
2023-05-05T06:58:05.230Z,68.9974
2023-05-05T06:59:06.426Z,69.5851
2023-05-05T07:00:07.832Z,68.7168
2023-05-05T07:01:08.111Z,66.9403
2023-05-05T07:02:08.184Z,68.0717
2023-05-05T07:03:08.302Z,68.9693
2023-05-05T07:04:08.549Z,68.5206
2023-05-05T07:05:09.648Z,68.0417
2023-05-05T07:06:10.747Z,68.8444
2023-05-05T07:07:12.012Z,68.5239
2023-05-05T07:08:13.085Z,68.0323
2023-05-05T07:09:15.755Z,69.8162
2023-05-05T07:10:15.653Z,69.6876
2023-05-05T07:11:16.422Z,68.9216
2023-05-05T07:12:17.622Z,69.5190
2023-05-05T07:13:19.001Z,68.9889
2023-05-05T07:14:19.041Z,69.0113
2023-05-05T07:15:29.096Z,69.0423
2023-05-05T07:16:24.623Z,68.4294
2023-05-05T07:17:25.864Z,68.5234
2023-05-05T07:18:25.872Z,67.9467
2023-05-05T07:19:26.770Z,67.2621
2023-05-05T07:20:27.922Z,67.1703
2023-05-05T07:21:28.928Z,67.1608
2023-05-05T07:22:30.116Z,67.3548
2023-05-05T07:23:31.265Z,67.1245
2023-05-05T07:24:32.261Z,66.7292
2023-05-05T07:25:33.399Z,66.8103
2023-05-05T07:26:34.711Z,66.1811
2023-05-05T07:27:35.811Z,66.6391
2023-05-05T07:28:36.930Z,67.0862
2023-05-05T07:29:37.833Z,67.0733
2023-05-05T07:30:38.260Z,66.4062
2023-05-05T07:31:39.547Z,66.4539
2023-05-05T07:32:39.614Z,66.1867
2023-05-05T07:33:40.761Z,66.1494
2023-05-05T07:34:41.626Z,66.4137
2023-05-05T07:35:42.597Z,65.7145
2023-05-05T07:36:43.756Z,66.0983
2023-05-05T07:37:44.718Z,65.8012
2023-05-05T07:38:44.965Z,65.8482
2023-05-05T07:39:45.939Z,66.2745
2023-05-05T07:40:46.649Z,66.2912
2023-05-05T07:41:47.811Z,66.2703
2023-05-05T07:42:48.826Z,66.5087
2023-05-05T07:43:49.951Z,66.2876
2023-05-05T07:44:50.957Z,66.1771
2023-05-05T07:45:52.133Z,66.3607
2023-05-05T07:46:52.137Z,66.3314
2023-05-05T07:47:53.249Z,65.6866
2023-05-05T07:49:54.211Z,65.9981
2023-05-05T07:50:54.619Z,66.4588
2023-05-05T07:51:55.873Z,65.9264
2023-05-05T07:53:02.525Z,65.3056
2023-05-05T07:53:56.873Z,66.0296
2023-05-05T07:54:57.074Z,66.0324
2023-05-05T07:55:58.079Z,66.6198
2023-05-05T07:56:59.023Z,65.8650
2023-05-05T07:58:00.200Z,65.5854
2023-05-05T07:59:01.299Z,65.6497
2023-05-05T08:00:02.151Z,65.8167
2023-05-05T08:01:02.226Z,65.8101
2023-05-05T08:02:03.138Z,65.7076
2023-05-05T08:03:03.878Z,65.6463
2023-05-05T08:04:04.938Z,66.2210
2023-05-05T08:05:05.060Z,66.0732
2023-05-05T08:06:04.990Z,65.6074
2023-05-05T08:07:06.102Z,65.6496
2023-05-05T08:08:06.706Z,66.0259
2023-05-05T08:09:07.624Z,66.3407
2023-05-05T08:10:08.916Z,66.7113
2023-05-05T08:11:10.037Z,66.0988
2023-05-05T08:12:10.763Z,65.6875
2023-05-05T08:13:11.071Z,65.5540
2023-05-05T08:14:12.289Z,65.5708
2023-05-05T08:15:12.588Z,66.0614
2023-05-05T08:16:12.708Z,66.3089
2023-05-05T08:17:13.845Z,65.6862
2023-05-05T08:18:14.017Z,66.2732
2023-05-05T08:19:27.566Z,66.5748
2023-05-05T08:20:14.638Z,66.4310
2023-05-05T08:21:14.744Z,66.2206
2023-05-05T08:22:15.881Z,66.3205
2023-05-05T08:23:16.010Z,66.6735
2023-05-05T08:24:17.403Z,65.7898
2023-05-05T08:25:18.667Z,65.7416
2023-05-05T08:26:18.845Z,65.5400
2023-05-05T08:27:19.812Z,65.4267
2023-05-05T08:28:19.895Z,64.6834
2023-05-05T08:29:20.913Z,64.5658
2023-05-05T08:30:20.963Z,63.8572
2023-05-05T08:31:22.211Z,63.2373
2023-05-05T08:34:23.877Z,63.5585
2023-05-05T08:35:24.301Z,63.6434
2023-05-05T08:36:25.543Z,63.6665
2023-05-05T08:37:26.558Z,63.7088
2023-05-05T08:38:27.720Z,63.3842
2023-05-05T08:39:27.998Z,62.7500
2023-05-05T08:40:28.584Z,62.4954
2023-05-05T08:41:29.640Z,62.6418
2023-05-05T08:42:36.937Z,62.5864
2023-05-05T08:43:31.931Z,62.7527
2023-05-05T08:44:33.150Z,63.3724
2023-05-05T08:45:34.059Z,63.2014
2023-05-05T08:46:35.265Z,62.8207
2023-05-05T08:47:35.496Z,62.2875
2023-05-05T08:48:35.734Z,62.5654
2023-05-05T08:50:36.732Z,62.3842
2023-05-05T08:51:37.503Z,62.6408
2023-05-05T08:52:39.080Z,61.9981
2023-05-05T08:53:40.164Z,62.8513
2023-05-05T08:54:40.221Z,62.3484
2023-05-05T08:55:40.695Z,62.7476
2023-05-05T08:56:41.984Z,62.1634
2023-05-05T08:57:43.406Z,62.2437
2023-05-05T08:58:44.386Z,61.9313
2023-05-05T08:59:44.453Z,61.0810
2023-05-05T09:00:45.735Z,61.3036
2023-05-05T09:01:45.990Z,61.0482
2023-05-05T09:02:46.242Z,61.4646
2023-05-05T09:03:47.266Z,61.8225
2023-05-05T09:04:48.556Z,62.2142
2023-05-05T09:05:49.049Z,62.1908
2023-05-05T09:06:49.131Z,62.2539
2023-05-05T09:07:50.384Z,62.7505
2023-05-05T09:08:51.676Z,63.0593
2023-05-05T09:09:51.693Z,62.4452
2023-05-05T09:10:51.997Z,62.7482
2023-05-05T09:11:53.162Z,62.9931
2023-05-05T09:12:53.251Z,63.0416
2023-05-05T09:13:53.462Z,62.7012
2023-05-05T09:14:53.402Z,62.3116
2023-05-05T09:15:53.538Z,62.8930
2023-05-05T09:16:53.547Z,63.0228
2023-05-05T09:17:53.767Z,61.3957
2023-05-05T09:18:54.982Z,61.3111
2023-05-05T09:19:55.046Z,61.1802
2023-05-05T09:20:58.143Z,61.2281
2023-05-05T09:21:56.743Z,61.6576
2023-05-05T09:22:57.976Z,61.5603
2023-05-05T09:24:04.897Z,62.1997
2023-05-05T09:24:59.700Z,61.7972
2023-05-05T09:25:59.917Z,61.9795
2023-05-05T09:27:01.356Z,62.0553
2023-05-05T09:28:01.327Z,62.5043
2023-05-05T09:29:01.418Z,61.3169
2023-05-05T09:30:02.653Z,60.3577
2023-05-05T09:31:02.736Z,60.5599
2023-05-05T09:32:02.828Z,60.4399
2023-05-05T09:33:03.559Z,60.2019
2023-05-05T09:34:04.720Z,60.2961
2023-05-05T09:35:04.730Z,60.0960
2023-05-05T09:36:04.877Z,60.1966
2023-05-05T09:37:06.370Z,60.2876
2023-05-05T09:38:07.017Z,60.1725
2023-05-05T09:39:07.280Z,60.7658
2023-05-05T09:40:07.389Z,61.6856
2023-05-05T09:41:08.637Z,62.2130
2023-05-05T09:42:09.910Z,61.8921
2023-05-05T09:43:10.073Z,61.8431
2023-05-05T09:44:10.164Z,61.4141
2023-05-05T09:45:11.342Z,61.1609
2023-05-05T09:46:11.545Z,61.0927
2023-05-05T09:47:28.989Z,61.2443
2023-05-05T09:48:17.325Z,61.3226
2023-05-05T09:49:17.453Z,61.3203
2023-05-05T09:50:17.757Z,61.4111
2023-05-05T09:51:17.843Z,61.4956
2023-05-05T09:52:17.863Z,62.1019
2023-05-05T09:53:18.177Z,62.1092
2023-05-05T09:54:18.278Z,61.4899
2023-05-05T09:55:18.650Z,60.6370
2023-05-05T09:56:19.119Z,60.2045
2023-05-05T09:57:20.404Z,59.8996
2023-05-05T09:58:20.703Z,59.0685
2023-05-05T09:59:20.629Z,58.8760
2023-05-05T10:00:21.293Z,58.8656
2023-05-05T10:01:21.266Z,58.7213
2023-05-05T10:02:21.598Z,58.7493
2023-05-05T10:03:21.722Z,58.6552
2023-05-05T10:04:21.879Z,58.9103
2023-05-05T10:05:22.110Z,59.6714
2023-05-05T10:06:22.396Z,59.4572
2023-05-05T10:07:23.685Z,59.8102
2023-05-05T10:08:23.712Z,59.2294
2023-05-05T10:09:25.323Z,58.2236
2023-05-05T10:10:26.920Z,57.7729
2023-05-05T10:11:25.865Z,58.0722
2023-05-05T10:12:27.021Z,59.4608
2023-05-05T10:13:27.361Z,60.0042
2023-05-05T10:14:28.612Z,59.6941
2023-05-05T10:15:28.899Z,57.7333
2023-05-05T10:16:29.712Z,57.9608
2023-05-05T10:17:30.282Z,57.7280
2023-05-05T10:18:30.947Z,57.1889
2023-05-05T10:19:30.873Z,57.0162
2023-05-05T10:20:31.087Z,57.0644
2023-05-05T10:21:31.140Z,57.1041
2023-05-05T10:22:31.325Z,57.4563
2023-05-05T10:23:31.464Z,58.4886
2023-05-05T10:24:31.746Z,60.0409
2023-05-05T10:27:33.220Z,57.4562
2023-05-05T10:28:33.347Z,58.3484
2023-05-05T10:29:34.827Z,57.3745
2023-05-05T10:30:35.417Z,58.2157
2023-05-05T10:31:35.551Z,57.5927
2023-05-05T10:33:42.679Z,56.7997
2023-05-05T10:34:43.809Z,56.4764
2023-05-05T10:35:45.028Z,56.1332
2023-05-05T10:36:45.333Z,55.8754
2023-05-05T10:37:45.242Z,56.1815
2023-05-05T10:38:45.304Z,56.3713
2023-05-05T10:39:46.760Z,56.4939
2023-05-05T10:40:47.625Z,56.3057
2023-05-05T10:41:48.004Z,56.2829
2023-05-05T10:42:48.004Z,55.9071
2023-05-05T10:43:48.171Z,55.8344
2023-05-05T10:44:48.286Z,56.0303
2023-05-05T10:45:49.115Z,55.8506
2023-05-05T10:46:49.663Z,56.0270
2023-05-05T10:47:50.118Z,56.6373
2023-05-05T10:48:50.744Z,56.3049
2023-05-05T10:49:50.689Z,56.5150
2023-05-05T10:50:50.823Z,56.4509
2023-05-05T10:51:51.407Z,56.0828
2023-05-05T10:52:51.683Z,56.2085
2023-05-05T10:53:52.978Z,55.8123
2023-05-05T10:54:53.418Z,55.7347
2023-05-05T10:55:53.386Z,55.3841
2023-05-05T10:56:53.820Z,55.3095
2023-05-05T10:57:53.831Z,55.0896
2023-05-05T10:59:00.141Z,55.1729
2023-05-05T10:59:55.230Z,55.1419
2023-05-05T11:00:55.503Z,55.4686
2023-05-05T11:01:56.291Z,55.6525
2023-05-05T11:02:57.236Z,55.7668
2023-05-05T11:03:57.949Z,55.8735
2023-05-05T11:04:58.233Z,55.9348
2023-05-05T11:05:58.380Z,54.8366
2023-05-05T11:06:59.649Z,54.7090
2023-05-05T11:08:00.709Z,54.7616
2023-05-05T11:09:00.821Z,54.6156
2023-05-05T11:10:01.002Z,54.7377
2023-05-05T11:11:01.860Z,54.0308
2023-05-05T11:12:02.315Z,53.4041
2023-05-05T11:13:02.750Z,53.4483
2023-05-05T11:14:03.757Z,52.7864
2023-05-05T11:15:03.919Z,53.1806
2023-05-05T11:16:04.097Z,53.6448
2023-05-05T11:17:04.681Z,52.8192
2023-05-05T11:18:07.376Z,51.9301
2023-05-05T11:19:05.063Z,51.7507
2023-05-05T11:20:05.121Z,51.6898
2023-05-05T11:21:05.481Z,52.0420
2023-05-05T11:22:05.689Z,51.7806
2023-05-05T11:23:05.886Z,52.7887
2023-05-05T11:24:06.056Z,52.5986
2023-05-05T11:25:07.249Z,51.6308
2023-05-05T11:26:07.502Z,50.7332
2023-05-05T11:27:08.921Z,50.6057
2023-05-05T11:28:09.107Z,50.7021
2023-05-05T11:29:09.272Z,51.2570
2023-05-05T11:30:10.520Z,50.7240
2023-05-05T11:31:10.709Z,50.9861
2023-05-05T11:32:11.010Z,49.9571
2023-05-05T11:33:11.141Z,51.1221
2023-05-05T11:34:12.378Z,50.9631
2023-05-05T11:35:12.497Z,51.5094
2023-05-05T11:36:13.950Z,51.3400
2023-05-05T11:37:15.285Z,51.5440
2023-05-05T11:38:15.478Z,50.5219
2023-05-05T11:39:16.763Z,49.2215
2023-05-05T11:40:17.019Z,48.9936
2023-05-05T11:41:17.071Z,48.6784
2023-05-05T11:42:18.305Z,48.8477
2023-05-05T11:43:18.530Z,48.7105
2023-05-05T11:44:18.570Z,48.4580
2023-05-05T11:45:18.693Z,48.5145
2023-05-05T11:46:19.104Z,48.3458
2023-05-05T11:47:19.596Z,48.0696
2023-05-05T11:48:20.080Z,47.5719
2023-05-05T11:49:20.637Z,47.9880
2023-05-05T11:50:20.590Z,47.7947
2023-05-05T11:51:20.714Z,47.6780
2023-05-05T11:52:20.765Z,48.1470
2023-05-05T11:53:21.050Z,48.7162
2023-05-05T11:54:21.285Z,48.8797
2023-05-05T11:55:21.369Z,50.0322
2023-05-05T11:56:22.810Z,48.6730
2023-05-05T11:57:22.895Z,48.0157
2023-05-05T11:58:23.136Z,48.4440
2023-05-05T11:59:24.423Z,48.6317
2023-05-05T12:00:24.621Z,48.8804
2023-05-05T12:01:25.915Z,49.6779
2023-05-05T12:02:26.332Z,49.4262
2023-05-05T12:03:28.138Z,51.0851
2023-05-05T12:04:28.533Z,52.4234
2023-05-05T12:05:28.916Z,50.0514
2023-05-05T12:06:29.233Z,49.4869
2023-05-05T12:07:29.370Z,49.8138
2023-05-05T12:08:29.402Z,50.1747
2023-05-05T12:09:29.503Z,50.5685
2023-05-05T12:10:30.642Z,49.8522
2023-05-05T12:11:31.966Z,50.9798
2023-05-05T12:12:32.337Z,50.2718
2023-05-05T12:13:33.246Z,49.5268
2023-05-05T12:14:34.464Z,47.9934
2023-05-05T12:15:34.676Z,46.7832
2023-05-05T12:16:34.882Z,46.5359
2023-05-05T12:17:35.533Z,46.5175
2023-05-05T12:18:36.222Z,46.8737
2023-05-05T12:19:36.337Z,46.5755
2023-05-05T12:20:37.680Z,47.3518
2023-05-05T12:21:37.860Z,48.5094
2023-05-05T12:22:38.058Z,47.7405
2023-05-05T12:23:38.616Z,47.0292
2023-05-05T12:24:38.630Z,46.8174
2023-05-05T12:25:38.864Z,46.7681
2023-05-05T12:26:38.876Z,46.9159
2023-05-05T12:27:39.285Z,46.8019
2023-05-05T12:28:39.356Z,47.1833
2023-05-05T12:29:39.623Z,46.4772
2023-05-05T12:30:40.655Z,46.6619
2023-05-05T12:31:41.095Z,46.3796
2023-05-05T12:32:41.716Z,46.0078
2023-05-05T12:33:41.942Z,45.8300
2023-05-05T12:34:42.107Z,45.2567
2023-05-05T12:35:42.100Z,45.0828
2023-05-05T12:36:42.685Z,46.0941
2023-05-05T12:37:43.914Z,45.4745
2023-05-05T12:38:44.154Z,44.4789
2023-05-05T12:39:45.634Z,43.3568
2023-05-05T12:40:46.407Z,44.1374
2023-05-05T12:41:46.537Z,44.9310
2023-05-05T12:42:46.627Z,45.7556
2023-05-05T12:43:46.822Z,46.3667
2023-05-05T12:44:46.800Z,45.4441
2023-05-05T12:45:47.135Z,45.3807
2023-05-05T12:46:47.617Z,45.0823
2023-05-05T12:47:48.059Z,44.4952
2023-05-05T12:48:48.601Z,43.3270
2023-05-05T12:49:48.941Z,42.8497
2023-05-05T12:50:50.450Z,42.4048
2023-05-05T12:51:50.516Z,42.4717
2023-05-05T12:52:50.724Z,42.1387
2023-05-05T12:53:51.753Z,42.6929
2023-05-05T12:54:52.953Z,42.9199
2023-05-05T12:55:53.277Z,42.2127
2023-05-05T12:56:53.482Z,41.5901
2023-05-05T12:57:53.666Z,42.2431
2023-05-05T12:58:53.864Z,43.7925
2023-05-05T12:59:55.174Z,44.4515
2023-05-05T13:00:55.739Z,42.6769
2023-05-05T13:01:56.202Z,43.8630